createdAt,value
2019-02-18T00:00:03.008Z,35.80
2019-02-18T00:01:03.000Z,32.00
2019-02-18T00:02:02.989Z,37.50
2019-02-18T00:03:02.977Z,33.70
2019-02-18T00:04:02.968Z,35.90
2019-02-18T00:05:02.954Z,33.20
2019-02-18T00:06:02.947Z,34.10
2019-02-18T00:07:02.933Z,31.70
2019-02-18T00:08:02.926Z,32.70
2019-02-18T00:09:02.913Z,33.80
2019-02-18T00:10:02.902Z,30.90
2019-02-18T00:11:02.892Z,32.40
2019-02-18T00:12:02.883Z,33.40
2019-02-18T00:13:02.869Z,32.70
2019-02-18T00:14:02.860Z,37.50
2019-02-18T00:15:02.848Z,34.00
2019-02-18T00:16:02.838Z,32.10
2019-02-18T00:17:02.827Z,35.10
2019-02-18T00:18:02.818Z,38.20
2019-02-18T00:19:02.808Z,38.90
2019-02-18T00:20:02.798Z,35.50
2019-02-18T00:21:02.785Z,33.80
2019-02-18T00:22:02.775Z,30.40
2019-02-18T00:23:02.765Z,34.30
2019-02-18T00:24:02.754Z,38.10
2019-02-18T00:25:02.742Z,32.60
2019-02-18T00:26:02.733Z,39.50
2019-02-18T00:27:02.724Z,33.50
2019-02-18T00:28:03.101Z,35.50
2019-02-18T00:29:02.707Z,35.90
2019-02-18T00:30:02.689Z,33.60
2019-02-18T00:31:02.682Z,31.00
2019-02-18T00:32:02.670Z,34.80
2019-02-18T00:33:02.664Z,34.20
2019-02-18T00:34:02.653Z,37.60
2019-02-18T00:35:02.637Z,34.40
2019-02-18T00:36:02.628Z,34.40
2019-02-18T00:37:02.616Z,32.50
2019-02-18T00:38:02.608Z,30.90
2019-02-18T00:39:02.598Z,34.30
2019-02-18T00:40:02.585Z,33.90
2019-02-18T00:41:02.575Z,36.70
2019-02-18T00:42:02.565Z,34.00
2019-02-18T00:43:02.554Z,32.70
2019-02-18T00:44:02.545Z,33.80
2019-02-18T00:45:02.535Z,34.80
2019-02-18T00:46:02.522Z,34.60
2019-02-18T00:47:02.514Z,36.80
2019-02-18T00:48:02.503Z,36.20
2019-02-18T00:49:02.491Z,35.40
2019-02-18T00:50:02.482Z,33.40
2019-02-18T00:51:02.470Z,35.10
2019-02-18T00:52:02.460Z,35.00
2019-02-18T00:53:04.078Z,34.30
2019-02-18T00:54:02.437Z,41.60
2019-02-18T00:55:02.429Z,39.20
2019-02-18T00:56:02.417Z,36.60
2019-02-18T00:57:02.408Z,40.80
2019-02-18T00:58:02.397Z,35.90
2019-02-18T00:59:02.390Z,35.40
2019-02-18T01:00:02.380Z,39.00
2019-02-18T01:01:02.368Z,39.20
2019-02-18T01:02:02.355Z,35.30
2019-02-18T01:03:02.350Z,36.60
2019-02-18T01:04:02.333Z,39.80
2019-02-18T01:05:02.323Z,41.50
2019-02-18T01:06:02.312Z,41.40
2019-02-18T01:07:02.306Z,42.00
2019-02-18T01:08:02.291Z,36.30
2019-02-18T01:09:02.281Z,37.20
2019-02-18T01:10:02.272Z,38.50
2019-02-18T01:11:02.263Z,39.90
2019-02-18T01:12:02.250Z,45.80
2019-02-18T01:13:02.239Z,37.90
2019-02-18T01:14:02.233Z,40.60
2019-02-18T01:15:02.219Z,42.60
2019-02-18T01:16:02.209Z,39.00
2019-02-18T01:17:02.202Z,38.30
2019-02-18T01:18:02.188Z,36.90
2019-02-18T01:19:02.177Z,37.30
2019-02-18T01:20:02.164Z,38.80
2019-02-18T01:21:02.160Z,37.80
2019-02-18T01:22:02.145Z,45.10
2019-02-18T01:23:02.136Z,39.90
2019-02-18T01:24:02.129Z,45.70
2019-02-18T01:25:02.115Z,41.70
2019-02-18T01:26:02.104Z,37.40
2019-02-18T01:27:02.092Z,41.50
2019-02-18T01:28:02.082Z,40.10
2019-02-18T01:29:02.072Z,37.70
2019-02-18T01:30:02.061Z,39.70
2019-02-18T01:31:02.050Z,39.40
2019-02-18T01:32:02.041Z,43.90
2019-02-18T01:33:02.030Z,47.10
2019-02-18T01:34:02.018Z,47.10
2019-02-18T01:35:02.009Z,43.70
2019-02-18T01:36:01.999Z,39.70
2019-02-18T01:37:01.988Z,40.50
2019-02-18T01:38:01.977Z,49.40
2019-02-18T01:39:01.970Z,52.80
2019-02-18T01:40:01.962Z,51.10
2019-02-18T01:41:01.948Z,42.00
2019-02-18T01:42:01.936Z,46.20
2019-02-18T01:43:01.925Z,43.10
2019-02-18T01:44:01.916Z,45.20
2019-02-18T01:45:01.904Z,42.30
2019-02-18T01:46:01.892Z,42.50
2019-02-18T01:47:01.884Z,43.80
2019-02-18T01:48:01.875Z,49.00
2019-02-18T01:49:01.861Z,50.20
2019-02-18T01:50:01.857Z,48.30
2019-02-18T01:51:01.841Z,38.80
2019-02-18T01:52:01.832Z,45.80
2019-02-18T01:53:01.854Z,45.10
2019-02-18T01:54:01.813Z,41.20
2019-02-18T01:55:01.799Z,40.80
2019-02-18T01:56:01.792Z,39.40
2019-02-18T01:57:01.779Z,41.40
2019-02-18T01:58:01.768Z,36.60
2019-02-18T01:59:01.757Z,39.70
2019-02-18T02:00:01.747Z,39.10
2019-02-18T02:01:01.738Z,40.60
2019-02-18T02:02:01.725Z,40.90
2019-02-18T02:03:01.715Z,39.60
2019-02-18T02:04:01.711Z,41.30
2019-02-18T02:05:01.693Z,42.80
2019-02-18T02:06:01.685Z,41.20
2019-02-18T02:07:01.671Z,43.50
2019-02-18T02:08:01.664Z,40.30
2019-02-18T02:09:01.656Z,42.20
2019-02-18T02:10:01.641Z,45.20
2019-02-18T02:11:01.631Z,42.10
2019-02-18T02:12:01.625Z,42.10
2019-02-18T02:13:01.612Z,46.70
2019-02-18T02:14:01.599Z,49.00
2019-02-18T02:15:01.596Z,51.90
2019-02-18T02:16:01.579Z,50.70
2019-02-18T02:17:01.573Z,52.50
2019-02-18T02:18:01.557Z,46.80
2019-02-18T02:19:01.546Z,41.50
2019-02-18T02:20:01.541Z,43.60
2019-02-18T02:21:01.526Z,40.20
2019-02-18T02:22:01.517Z,44.60
2019-02-18T02:23:01.505Z,47.00
2019-02-18T02:24:01.496Z,43.60
2019-02-18T02:25:01.491Z,44.30
2019-02-18T02:26:01.473Z,48.80
2019-02-18T02:27:01.464Z,47.30
2019-02-18T02:28:01.455Z,47.40
2019-02-18T02:29:01.443Z,46.50
2019-02-18T02:30:01.445Z,47.10
2019-02-18T02:31:01.598Z,48.10
2019-02-18T02:32:01.414Z,47.30
2019-02-18T02:33:01.401Z,43.40
2019-02-18T02:34:01.392Z,44.50
2019-02-18T02:35:01.386Z,51.50
2019-02-18T02:36:01.369Z,43.30
2019-02-18T02:37:01.361Z,44.70
2019-02-18T02:38:07.829Z,45.00
2019-02-18T02:39:02.336Z,46.50
2019-02-18T02:40:01.328Z,46.60
2019-02-18T02:41:01.324Z,46.20
2019-02-18T02:42:01.306Z,47.50
2019-02-18T02:43:01.295Z,46.90
2019-02-18T02:44:01.286Z,47.80
2019-02-18T02:45:01.294Z,44.30
2019-02-18T02:46:01.270Z,48.00
2019-02-18T02:47:01.257Z,46.10
2019-02-18T02:48:01.244Z,45.70
2019-02-18T02:49:01.237Z,57.90
2019-02-18T02:50:01.232Z,50.60
2019-02-18T02:51:01.215Z,54.10
2019-02-18T02:52:01.206Z,58.50
2019-02-18T02:53:01.193Z,54.20
2019-02-18T02:54:01.180Z,52.10
2019-02-18T02:55:01.171Z,54.30
2019-02-18T02:56:01.161Z,52.40
2019-02-18T02:57:01.148Z,51.70
2019-02-18T02:58:01.141Z,55.30
2019-02-18T02:59:01.134Z,48.70
2019-02-18T03:00:01.125Z,59.40
2019-02-18T03:01:01.129Z,59.10
2019-02-18T03:02:01.099Z,58.50
2019-02-18T03:03:01.086Z,62.40
2019-02-18T03:04:01.078Z,60.60
2019-02-18T03:05:01.066Z,61.50
2019-02-18T03:06:01.054Z,56.60
2019-02-18T03:07:01.050Z,54.50
2019-02-18T03:08:01.048Z,60.10
2019-02-18T03:09:01.027Z,57.20
2019-02-18T03:10:01.015Z,54.40
2019-02-18T03:11:01.005Z,51.90
2019-02-18T03:12:00.994Z,53.30
2019-02-18T03:13:00.985Z,59.60
2019-02-18T03:14:00.975Z,60.00
2019-02-18T03:15:00.961Z,49.10
2019-02-18T03:16:00.951Z,55.30
2019-02-18T03:17:00.942Z,54.40
2019-02-18T03:18:00.933Z,51.50
2019-02-18T03:19:00.929Z,54.20
2019-02-18T03:20:00.915Z,56.70
2019-02-18T03:21:00.900Z,58.90
2019-02-18T03:22:00.888Z,53.40
2019-02-18T03:23:00.881Z,46.70
2019-02-18T03:24:00.871Z,46.20
2019-02-18T03:25:00.856Z,58.60
2019-02-18T03:26:00.850Z,56.40
2019-02-18T03:27:00.837Z,53.20
2019-02-18T03:28:00.826Z,52.00
2019-02-18T03:29:00.819Z,48.90
2019-02-18T03:30:00.812Z,54.10
2019-02-18T03:31:00.800Z,50.10
2019-02-18T03:32:00.792Z,48.60
2019-02-18T03:33:00.785Z,57.10
2019-02-18T03:34:00.774Z,54.60
2019-02-18T03:35:01.227Z,54.20
2019-02-18T03:36:00.749Z,52.00
2019-02-18T03:37:00.732Z,56.20
2019-02-18T03:38:00.724Z,49.00
2019-02-18T03:39:00.711Z,52.20
2019-02-18T03:40:00.731Z,53.20
2019-02-18T03:41:03.399Z,54.20
2019-02-18T03:42:00.681Z,53.30
2019-02-18T03:43:00.676Z,46.10
2019-02-18T03:44:00.660Z,55.00
2019-02-18T03:45:00.651Z,59.20
2019-02-18T03:46:00.638Z,63.50
2019-02-18T03:47:00.629Z,56.40
2019-02-18T03:48:00.616Z,50.80
2019-02-18T03:49:00.607Z,58.70
2019-02-18T03:50:00.627Z,57.60
2019-02-18T03:51:00.585Z,51.90
2019-02-18T03:52:00.586Z,61.70
2019-02-18T03:53:00.566Z,56.20
2019-02-18T03:54:00.553Z,53.50
2019-02-18T03:55:00.543Z,49.70
2019-02-18T03:56:00.535Z,55.30
2019-02-18T03:57:00.523Z,54.60
2019-02-18T03:58:00.512Z,60.80
2019-02-18T03:59:00.503Z,59.60
2019-02-18T04:00:00.492Z,60.20
2019-02-18T04:01:00.481Z,54.70
2019-02-18T04:02:00.484Z,54.20
2019-02-18T04:03:00.462Z,59.20
2019-02-18T04:04:00.452Z,57.30
2019-02-18T04:05:00.438Z,58.90
2019-02-18T04:06:00.429Z,56.60
2019-02-18T04:07:00.417Z,61.30
2019-02-18T04:08:00.409Z,60.00
2019-02-18T04:09:00.398Z,57.60
2019-02-18T04:10:00.440Z,55.80
2019-02-18T04:11:00.378Z,56.80
2019-02-18T04:12:00.367Z,57.00
2019-02-18T04:13:00.360Z,58.40
2019-02-18T04:14:00.343Z,52.90
2019-02-18T04:15:00.515Z,52.90
2019-02-18T04:16:00.324Z,54.70
2019-02-18T04:17:00.320Z,54.00
2019-02-18T04:18:00.303Z,58.80
2019-02-18T04:19:00.293Z,59.90
2019-02-18T04:20:00.325Z,53.20
2019-02-18T04:21:00.272Z,60.20
2019-02-18T04:22:00.262Z,50.40
2019-02-18T04:23:00.251Z,47.60
2019-02-18T04:24:00.241Z,51.60
2019-02-18T04:25:00.333Z,58.30
2019-02-18T04:26:00.219Z,52.00
2019-02-18T04:27:00.209Z,55.20
2019-02-18T04:28:00.200Z,60.30
2019-02-18T04:29:00.188Z,56.90
2019-02-18T04:30:00.403Z,58.40
2019-02-18T04:31:00.166Z,63.50
2019-02-18T04:32:00.159Z,66.40
2019-02-18T04:33:00.146Z,60.00
2019-02-18T04:34:00.140Z,58.50
2019-02-18T04:35:00.239Z,62.80
2019-02-18T04:36:00.114Z,56.50
2019-02-18T04:37:00.111Z,55.50
2019-02-18T04:38:00.096Z,56.90
2019-02-18T04:39:00.083Z,61.40
2019-02-18T04:40:00.419Z,63.90
2019-02-18T04:41:00.063Z,53.70
2019-02-18T04:42:00.052Z,56.40
2019-02-18T04:43:00.041Z,60.70
2019-02-18T04:44:00.033Z,58.30
2019-02-18T04:45:00.085Z,59.00
2019-02-18T04:46:00.017Z,55.80
2019-02-18T04:46:59.999Z,63.40
2019-02-18T04:47:59.989Z,62.30
2019-02-18T04:48:59.981Z,62.50
2019-02-18T04:49:59.972Z,64.80
2019-02-18T04:50:59.959Z,54.60
2019-02-18T04:51:59.948Z,60.40
2019-02-18T04:52:59.936Z,59.90
2019-02-18T04:53:59.928Z,63.20
2019-02-18T04:54:59.919Z,60.20
2019-02-18T04:55:59.906Z,53.00
2019-02-18T04:56:59.896Z,57.90
2019-02-18T04:57:59.886Z,58.40
2019-02-18T04:58:59.878Z,54.80
2019-02-18T04:59:59.864Z,53.00
2019-02-18T05:01:02.811Z,55.20
2019-02-18T05:01:59.846Z,55.80
2019-02-18T05:02:59.835Z,58.80
2019-02-18T05:03:59.821Z,55.30
2019-02-18T05:04:59.867Z,60.10
2019-02-18T05:05:59.806Z,61.00
2019-02-18T05:06:59.793Z,61.50
2019-02-18T05:07:59.780Z,57.10
2019-02-18T05:09:05.401Z,57.60
2019-02-18T05:10:00.763Z,59.00
2019-02-18T05:10:59.751Z,54.00
2019-02-18T05:11:59.739Z,60.20
2019-02-18T05:12:59.730Z,56.30
2019-02-18T05:13:59.720Z,58.70
2019-02-18T05:14:59.708Z,59.00
2019-02-18T05:15:59.698Z,63.60
2019-02-18T05:16:59.686Z,61.60
2019-02-18T05:17:59.679Z,62.70
2019-02-18T05:18:59.666Z,57.80
2019-02-18T05:19:59.657Z,57.30
2019-02-18T05:20:59.644Z,58.30
2019-02-18T05:21:59.634Z,56.30
2019-02-18T05:22:59.624Z,56.40
2019-02-18T05:23:59.614Z,68.90
2019-02-18T05:24:59.603Z,67.40
2019-02-18T05:25:59.592Z,65.30
2019-02-18T05:26:59.581Z,57.60
2019-02-18T05:27:59.580Z,55.80
2019-02-18T05:28:59.561Z,53.80
2019-02-18T05:29:59.552Z,55.70
2019-02-18T05:30:59.542Z,58.90
2019-02-18T05:31:59.533Z,54.20
2019-02-18T05:32:59.536Z,56.90
2019-02-18T05:33:59.512Z,60.30
2019-02-18T05:34:59.500Z,59.00
2019-02-18T05:35:59.488Z,53.30
2019-02-18T05:36:59.478Z,59.10
2019-02-18T05:37:59.472Z,60.90
2019-02-18T05:38:59.458Z,55.60
2019-02-18T05:39:59.447Z,53.90
2019-02-18T05:40:59.438Z,53.30
2019-02-18T05:41:59.425Z,48.10
2019-02-18T05:42:59.419Z,52.80
2019-02-18T05:43:59.406Z,53.30
2019-02-18T05:44:59.400Z,60.40
2019-02-18T05:45:59.386Z,52.30
2019-02-18T05:46:59.373Z,54.70
2019-02-18T05:47:59.366Z,61.80
2019-02-18T05:48:59.353Z,53.00
2019-02-18T05:49:59.342Z,57.30
2019-02-18T05:50:59.334Z,56.90
2019-02-18T05:51:59.323Z,54.80
2019-02-18T05:52:59.310Z,59.40
2019-02-18T05:53:59.302Z,62.20
2019-02-18T05:54:59.295Z,63.10
2019-02-18T05:55:59.280Z,62.40
2019-02-18T05:56:59.268Z,64.80
2019-02-18T05:57:59.258Z,59.40
2019-02-18T05:58:59.249Z,56.70
2019-02-18T05:59:59.247Z,58.20
2019-02-18T06:00:59.229Z,60.40
2019-02-18T06:01:59.224Z,62.80
2019-02-18T06:02:59.207Z,55.50
2019-02-18T06:04:00.190Z,58.60
2019-02-18T06:04:59.198Z,62.90
2019-02-18T06:05:59.183Z,58.60
2019-02-18T06:06:59.205Z,63.60
2019-02-18T06:07:59.158Z,61.30
2019-02-18T06:08:59.147Z,61.70
2019-02-18T06:09:59.134Z,64.20
2019-02-18T06:10:59.173Z,68.00
2019-02-18T06:11:59.115Z,61.50
2019-02-18T06:12:59.116Z,62.40
2019-02-18T06:13:59.093Z,56.30
2019-02-18T06:14:59.081Z,57.10
2019-02-18T06:15:59.071Z,56.70
2019-02-18T06:16:59.059Z,64.30
2019-02-18T06:17:59.051Z,57.90
2019-02-18T06:18:59.042Z,63.80
2019-02-18T06:19:59.031Z,70.50
2019-02-18T06:20:59.020Z,69.10
2019-02-18T06:21:59.033Z,63.50
2019-02-18T06:22:59.021Z,64.40
2019-02-18T06:23:58.992Z,58.10
2019-02-18T06:24:58.975Z,60.50
2019-02-18T06:25:58.967Z,56.60
2019-02-18T06:26:58.956Z,59.40
2019-02-18T06:27:58.944Z,62.40
2019-02-18T06:28:58.937Z,60.70
2019-02-18T06:29:58.925Z,67.00
2019-02-18T06:30:58.914Z,63.10
2019-02-18T06:31:58.908Z,63.50
2019-02-18T06:33:01.065Z,66.40
2019-02-18T06:33:58.936Z,67.90
2019-02-18T06:34:58.871Z,64.40
2019-02-18T06:35:58.863Z,53.50
2019-02-18T06:36:58.856Z,54.50
2019-02-18T06:37:58.840Z,63.00
2019-02-18T06:38:58.830Z,61.90
2019-02-18T06:39:58.824Z,59.70
2019-02-18T06:40:58.813Z,62.20
2019-02-18T06:41:58.805Z,58.60
2019-02-18T06:42:58.789Z,53.50
2019-02-18T06:43:58.777Z,49.10
2019-02-18T06:44:58.766Z,49.10
2019-02-18T06:45:58.756Z,52.50
2019-02-18T06:46:58.746Z,60.20
2019-02-18T06:47:58.736Z,50.50
2019-02-18T06:48:58.724Z,51.80
2019-02-18T06:49:58.715Z,51.00
2019-02-18T06:50:58.709Z,54.20
2019-02-18T06:51:58.694Z,46.00
2019-02-18T06:52:58.687Z,49.30
2019-02-18T06:53:58.674Z,47.40
2019-02-18T06:54:58.664Z,47.50
2019-02-18T06:55:58.653Z,51.10
2019-02-18T06:56:58.645Z,52.70
2019-02-18T06:57:58.631Z,43.40
2019-02-18T06:58:58.622Z,43.80
2019-02-18T06:59:58.610Z,50.70
2019-02-18T07:00:58.600Z,43.90
2019-02-18T07:01:58.592Z,42.90
2019-02-18T07:02:58.579Z,42.50
2019-02-18T07:03:58.570Z,43.60
2019-02-18T07:04:58.558Z,41.60
2019-02-18T07:05:58.550Z,41.90
2019-02-18T07:06:58.540Z,38.30
2019-02-18T07:07:58.533Z,39.50
2019-02-18T07:08:58.516Z,41.00
2019-02-18T07:09:58.508Z,50.00
2019-02-18T07:10:58.495Z,42.40
2019-02-18T07:11:58.485Z,44.00
2019-02-18T07:12:58.475Z,45.40
2019-02-18T07:13:58.470Z,46.20
2019-02-18T07:14:58.454Z,43.60
2019-02-18T07:15:58.445Z,42.50
2019-02-18T07:16:58.433Z,42.60
2019-02-18T07:17:58.422Z,39.00
2019-02-18T07:18:58.411Z,41.70
2019-02-18T07:19:58.404Z,44.80
2019-02-18T07:20:58.394Z,41.30
2019-02-18T07:21:58.385Z,37.30
2019-02-18T07:22:58.371Z,43.60
2019-02-18T07:23:58.363Z,40.30
2019-02-18T07:24:58.352Z,39.10
2019-02-18T07:25:58.341Z,44.40
2019-02-18T07:26:58.334Z,42.60
2019-02-18T07:27:58.320Z,44.80
2019-02-18T07:28:58.310Z,43.40
2019-02-18T07:29:58.299Z,41.10
2019-02-18T07:30:58.289Z,45.20
2019-02-18T07:31:58.279Z,43.40
2019-02-18T07:32:58.270Z,48.50
2019-02-18T07:33:58.264Z,40.50
2019-02-18T07:34:58.248Z,42.50
2019-02-18T07:35:58.248Z,42.20
2019-02-18T07:36:58.226Z,40.30
2019-02-18T07:37:58.216Z,40.50
2019-02-18T07:39:05.160Z,44.40
2019-02-18T07:40:01.893Z,40.70
2019-02-18T07:40:58.187Z,46.20
2019-02-18T07:41:58.172Z,43.10
2019-02-18T07:42:58.161Z,44.70
2019-02-18T07:43:58.162Z,41.00
2019-02-18T07:44:58.139Z,43.90
2019-02-18T07:45:58.129Z,42.90
2019-02-18T07:46:58.120Z,43.70
2019-02-18T07:47:58.111Z,42.30
2019-02-18T07:48:58.097Z,41.50
2019-02-18T07:49:58.087Z,43.60
2019-02-18T07:50:58.078Z,41.00
2019-02-18T07:51:58.067Z,43.20
2019-02-18T07:52:58.056Z,45.30
2019-02-18T07:53:58.044Z,41.60
2019-02-18T07:54:58.036Z,41.00
2019-02-18T07:55:58.024Z,40.50
2019-02-18T07:56:58.015Z,44.20
2019-02-18T07:57:58.003Z,36.90
2019-02-18T07:58:57.991Z,45.00
2019-02-18T07:59:57.981Z,42.30
2019-02-18T08:00:57.979Z,35.50
2019-02-18T08:01:57.959Z,37.70
2019-02-18T08:02:57.954Z,36.30
2019-02-18T08:03:57.939Z,39.40
2019-02-18T08:04:57.930Z,36.40
2019-02-18T08:05:57.919Z,33.60
2019-02-18T08:06:57.911Z,34.50
2019-02-18T08:07:57.896Z,30.00
2019-02-18T08:08:57.889Z,30.20
2019-02-18T08:09:57.874Z,29.60
2019-02-18T08:10:57.864Z,29.70
2019-02-18T08:11:57.853Z,29.30
2019-02-18T08:12:57.844Z,26.00
2019-02-18T08:13:57.835Z,26.40
2019-02-18T08:14:57.824Z,27.10
2019-02-18T08:15:57.813Z,24.30
2019-02-18T08:16:57.802Z,25.00
2019-02-18T08:17:57.790Z,23.90
2019-02-18T08:18:57.779Z,27.10
2019-02-18T08:19:57.772Z,26.50
2019-02-18T08:20:57.756Z,27.60
2019-02-18T08:21:57.747Z,22.90
2019-02-18T08:22:57.737Z,23.70
2019-02-18T08:24:00.302Z,24.20
2019-02-18T08:24:57.716Z,26.30
2019-02-18T08:25:57.705Z,24.70
2019-02-18T08:26:57.702Z,24.70
2019-02-18T08:27:57.683Z,23.70
2019-02-18T08:28:57.672Z,23.40
2019-02-18T08:29:57.662Z,26.60
2019-02-18T08:30:57.650Z,23.60
2019-02-18T08:31:57.638Z,25.60
2019-02-18T08:32:57.628Z,28.60
2019-02-18T08:33:57.620Z,23.20
2019-02-18T08:34:57.607Z,25.60
2019-02-18T08:35:57.597Z,25.20
2019-02-18T08:36:57.594Z,26.00
2019-02-18T08:37:57.576Z,24.60
2019-02-18T08:38:57.565Z,25.30
2019-02-18T08:39:57.557Z,24.10
2019-02-18T08:40:57.541Z,26.10
2019-02-18T08:41:57.532Z,24.00
2019-02-18T08:42:57.523Z,22.80
2019-02-18T08:43:57.510Z,23.70
2019-02-18T08:44:57.498Z,24.60
2019-02-18T08:45:57.487Z,22.40
2019-02-18T08:46:57.476Z,25.30
2019-02-18T08:47:57.465Z,24.30
2019-02-18T08:48:57.456Z,22.20
2019-02-18T08:49:57.445Z,22.90
2019-02-18T08:50:57.437Z,23.10
2019-02-18T08:51:57.422Z,23.30
2019-02-18T08:52:57.411Z,21.20
2019-02-18T08:53:57.400Z,22.50
2019-02-18T08:54:57.411Z,23.80
2019-02-18T08:55:57.379Z,23.10
2019-02-18T08:56:57.367Z,22.90
2019-02-18T08:57:57.358Z,22.90
2019-02-18T08:58:57.347Z,25.10
2019-02-18T08:59:57.335Z,22.70
2019-02-18T09:01:02.572Z,23.10
2019-02-18T09:01:58.313Z,21.90
2019-02-18T09:02:57.302Z,21.10
2019-02-18T09:03:57.293Z,22.00
2019-02-18T09:04:57.289Z,22.50
2019-02-18T09:05:57.275Z,22.20
2019-02-18T09:06:57.264Z,23.50
2019-02-18T09:07:57.253Z,22.50
2019-02-18T09:08:57.240Z,23.80
2019-02-18T09:09:57.227Z,21.60
2019-02-18T09:10:57.217Z,20.90
2019-02-18T09:11:57.239Z,22.40
2019-02-18T09:12:57.195Z,22.10
2019-02-18T09:13:57.191Z,21.90
2019-02-18T09:14:57.178Z,20.90
2019-02-18T09:15:59.990Z,20.10
2019-02-18T09:16:57.152Z,21.10
2019-02-18T09:17:57.199Z,21.40
2019-02-18T09:18:57.132Z,22.50
2019-02-18T09:19:57.124Z,21.10
2019-02-18T09:20:57.110Z,22.40
2019-02-18T09:21:57.101Z,24.40
2019-02-18T09:22:57.150Z,21.70
2019-02-18T09:23:57.078Z,22.40
2019-02-18T09:24:57.070Z,22.80
2019-02-18T09:25:57.058Z,21.80
2019-02-18T09:26:57.044Z,21.20
2019-02-18T09:27:57.034Z,21.60
2019-02-18T09:28:57.022Z,19.90
2019-02-18T09:29:57.016Z,22.80
2019-02-18T09:30:57.004Z,24.30
2019-02-18T09:31:56.992Z,21.60
2019-02-18T09:32:56.980Z,21.40
2019-02-18T09:33:56.971Z,21.10
2019-02-18T09:35:01.942Z,23.60
2019-02-18T09:35:57.950Z,20.60
2019-02-18T09:36:56.940Z,23.20
2019-02-18T09:37:56.928Z,22.80
2019-02-18T09:38:56.919Z,23.00
2019-02-18T09:39:56.912Z,23.00
2019-02-18T09:40:56.895Z,23.70
2019-02-18T09:41:56.887Z,21.90
2019-02-18T09:42:56.874Z,22.40
2019-02-18T09:43:56.864Z,23.50
2019-02-18T09:44:56.851Z,20.30
2019-02-18T09:45:56.842Z,23.10
2019-02-18T09:46:56.831Z,25.30
2019-02-18T09:47:56.826Z,23.40
2019-02-18T09:48:56.811Z,20.30
2019-02-18T09:49:56.802Z,22.60
2019-02-18T09:50:56.791Z,23.00
2019-02-18T09:51:56.782Z,20.50
2019-02-18T09:52:56.770Z,22.70
2019-02-18T09:53:56.762Z,20.60
2019-02-18T09:54:56.747Z,19.90
2019-02-18T09:55:56.738Z,22.30
2019-02-18T09:56:56.725Z,19.90
2019-02-18T09:57:56.717Z,22.40
2019-02-18T09:58:56.703Z,20.90
2019-02-18T09:59:56.697Z,22.60
2019-02-18T10:00:56.684Z,21.30
2019-02-18T10:01:56.672Z,19.40
2019-02-18T10:02:56.661Z,22.50
2019-02-18T10:03:56.650Z,21.50
2019-02-18T10:04:56.642Z,21.20
2019-02-18T10:05:56.629Z,22.00
2019-02-18T10:06:56.634Z,21.40
2019-02-18T10:07:56.608Z,21.20
2019-02-18T10:08:56.614Z,21.00
2019-02-18T10:09:56.587Z,23.30
2019-02-18T10:10:56.666Z,22.50
2019-02-18T10:11:56.567Z,18.70
2019-02-18T10:12:56.559Z,21.70
2019-02-18T10:13:56.548Z,20.60
2019-02-18T10:14:56.538Z,22.10
2019-02-18T10:15:56.527Z,22.50
2019-02-18T10:16:56.518Z,20.10
2019-02-18T10:17:56.505Z,21.90
2019-02-18T10:18:56.492Z,21.10
2019-02-18T10:19:56.484Z,20.50
2019-02-18T10:20:56.481Z,22.40
2019-02-18T10:21:56.464Z,21.10
2019-02-18T10:22:56.450Z,22.50
2019-02-18T10:23:56.438Z,20.20
2019-02-18T10:24:56.431Z,20.20
2019-02-18T10:25:56.417Z,19.20
2019-02-18T10:26:56.407Z,20.20
2019-02-18T10:27:56.396Z,21.30
2019-02-18T10:28:56.385Z,23.00
2019-02-18T10:29:56.377Z,21.70
2019-02-18T10:30:56.365Z,20.50
2019-02-18T10:31:56.354Z,19.20
2019-02-18T10:32:56.345Z,19.10
2019-02-18T10:33:56.334Z,20.40
2019-02-18T10:34:56.323Z,19.90
2019-02-18T10:35:56.314Z,17.70
2019-02-18T10:36:56.301Z,20.20
2019-02-18T10:37:56.292Z,18.30
2019-02-18T10:38:56.280Z,18.30
2019-02-18T10:39:56.272Z,19.60
2019-02-18T10:41:06.169Z,18.90
2019-02-18T10:41:57.247Z,21.30
2019-02-18T10:42:56.244Z,19.70
2019-02-18T10:43:56.232Z,18.20
2019-02-18T10:44:56.219Z,18.90
2019-02-18T10:45:56.207Z,20.30
2019-02-18T10:46:56.197Z,18.10
2019-02-18T10:47:56.190Z,20.50
2019-02-18T10:48:56.176Z,18.00
2019-02-18T10:49:56.166Z,19.60
2019-02-18T10:50:56.161Z,19.10
2019-02-18T10:51:56.151Z,18.70
2019-02-18T10:52:56.141Z,20.40
2019-02-18T10:53:56.122Z,20.20
2019-02-18T10:54:56.165Z,20.00
2019-02-18T10:55:56.102Z,19.80
2019-02-18T10:56:56.091Z,20.10
2019-02-18T10:57:56.080Z,18.50
2019-02-18T10:58:56.070Z,18.60
2019-02-18T10:59:56.059Z,19.80
2019-02-18T11:00:56.048Z,18.80
2019-02-18T11:01:56.040Z,20.90
2019-02-18T11:02:56.028Z,18.50
2019-02-18T11:03:56.016Z,19.30
2019-02-18T11:04:56.006Z,18.90
2019-02-18T11:05:55.995Z,19.30
2019-02-18T11:06:55.985Z,18.30
2019-02-18T11:07:55.978Z,18.60
2019-02-18T11:08:55.964Z,19.80
2019-02-18T11:09:55.954Z,19.60
2019-02-18T11:10:55.945Z,20.60
2019-02-18T11:11:55.933Z,20.30
2019-02-18T11:12:55.921Z,19.00
2019-02-18T11:13:55.912Z,19.20
2019-02-18T11:14:55.901Z,19.70
2019-02-18T11:15:55.891Z,18.50
2019-02-18T11:16:55.882Z,17.80
2019-02-18T11:17:55.870Z,20.20
2019-02-18T11:18:55.860Z,21.20
2019-02-18T11:19:55.850Z,19.70
2019-02-18T11:20:55.838Z,19.20
2019-02-18T11:21:55.826Z,18.40
2019-02-18T11:22:55.823Z,20.10
2019-02-18T11:23:55.807Z,20.90
2019-02-18T11:24:55.794Z,21.70
2019-02-18T11:25:55.785Z,19.80
2019-02-18T11:26:55.775Z,19.80
2019-02-18T11:27:55.766Z,24.00
2019-02-18T11:28:55.755Z,20.70
2019-02-18T11:29:55.743Z,20.40
2019-02-18T11:30:55.732Z,19.60
2019-02-18T11:31:55.724Z,19.60
2019-02-18T11:32:55.712Z,22.20
2019-02-18T11:33:55.703Z,19.50
2019-02-18T11:34:55.690Z,20.20
2019-02-18T11:35:55.682Z,19.30
2019-02-18T11:36:55.673Z,19.60
2019-02-18T11:37:55.660Z,20.40
2019-02-18T11:38:55.653Z,19.20
2019-02-18T11:39:55.641Z,18.30
2019-02-18T11:40:55.633Z,20.60
2019-02-18T11:41:55.620Z,19.30
2019-02-18T11:42:55.612Z,20.00
2019-02-18T11:43:55.604Z,21.20
2019-02-18T11:44:55.594Z,17.80
2019-02-18T11:45:55.583Z,18.50
2019-02-18T11:46:55.573Z,18.60
2019-02-18T11:47:55.562Z,19.30
2019-02-18T11:48:55.549Z,18.80
2019-02-18T11:49:55.540Z,18.90
2019-02-18T11:50:55.528Z,19.20
2019-02-18T11:51:55.518Z,18.30
2019-02-18T11:52:55.509Z,18.80
2019-02-18T11:53:55.498Z,20.10
2019-02-18T11:54:55.488Z,20.70
2019-02-18T11:55:55.478Z,18.20
2019-02-18T11:56:55.465Z,18.70
2019-02-18T11:57:55.457Z,17.80
2019-02-18T11:58:55.449Z,17.90
2019-02-18T11:59:55.437Z,19.70
2019-02-18T12:00:55.433Z,16.60
2019-02-18T12:01:55.418Z,17.40
2019-02-18T12:03:02.846Z,18.10
2019-02-18T12:03:56.390Z,17.10
2019-02-18T12:04:55.380Z,19.60
2019-02-18T12:05:55.370Z,19.40
2019-02-18T12:06:55.357Z,19.00
2019-02-18T12:07:55.361Z,18.80
2019-02-18T12:08:55.338Z,20.60
2019-02-18T12:09:55.326Z,17.50
2019-02-18T12:10:55.317Z,19.90
2019-02-18T12:11:55.305Z,18.20
2019-02-18T12:12:55.991Z,16.50
2019-02-18T12:13:55.285Z,17.90
2019-02-18T12:14:55.276Z,19.90
2019-02-18T12:15:55.264Z,19.00
2019-02-18T12:16:55.255Z,19.80
2019-02-18T12:17:55.242Z,18.00
2019-02-18T12:18:55.232Z,17.60
2019-02-18T12:19:55.222Z,19.10
2019-02-18T12:20:55.217Z,16.20
2019-02-18T12:21:55.203Z,16.70
2019-02-18T12:22:55.192Z,19.30
2019-02-18T12:23:55.181Z,18.60
2019-02-18T12:24:55.176Z,18.30
2019-02-18T12:25:55.161Z,15.40
2019-02-18T12:26:55.155Z,19.80
2019-02-18T12:27:55.144Z,17.30
2019-02-18T12:28:55.131Z,19.60
2019-02-18T12:29:55.122Z,18.20
2019-02-18T12:30:55.116Z,20.30
2019-02-18T12:31:55.102Z,18.10
2019-02-18T12:32:55.092Z,17.50
2019-02-18T12:33:55.079Z,16.90
2019-02-18T12:34:55.073Z,19.40
2019-02-18T12:35:55.061Z,17.70
2019-02-18T12:36:55.050Z,19.40
2019-02-18T12:37:55.731Z,21.40
2019-02-18T12:38:55.035Z,18.50
2019-02-18T12:39:55.019Z,17.30
2019-02-18T12:40:55.006Z,16.40
2019-02-18T12:41:54.994Z,17.00
2019-02-18T12:42:54.983Z,17.80
2019-02-18T12:43:54.976Z,18.30
2019-02-18T12:44:54.964Z,18.20
2019-02-18T12:45:54.957Z,19.40
2019-02-18T12:46:54.952Z,18.90
2019-02-18T12:47:54.941Z,18.00
2019-02-18T12:48:54.922Z,18.00
2019-02-18T12:49:54.914Z,16.10
2019-02-18T12:50:54.903Z,17.70
2019-02-18T12:51:54.890Z,16.60